RSC47MJ GCXO-GCLP
Flight info
| Callsign | RSC47MJ |
|---|---|
| Flight time | N/A |
| Altitude | 14000 |
| Route | LALTO |
| Aircraft | AT76/M-SDFGRY/LB1 |
Departure
| Time | 2026-04-23 17:15 |
|---|---|
| Airport | Tenerife Norte-Ciudad de La Laguna Airport (GCXO) |
Arrival
| Time | N/A |
|---|---|
| Airport | Gran Canaria Airport (GCLP) |
| Time | Latitude | Longitude | Altitude | Speed | Heading |
|---|---|---|---|---|---|
| 2026-04-23 17:04 | 28.48656 | -16.34588 | 2049 ft | 0 kts | 21° |
| 2026-04-23 17:05 | 28.48651 | -16.34590 | 2049 ft | 3 kts | 21° |
| 2026-04-23 17:05 | 28.48644 | -16.34593 | 2049 ft | 0 kts | 22° |
| 2026-04-23 17:11 | 28.48638 | -16.34596 | 2049 ft | 3 kts | 22° |
| 2026-04-23 17:11 | 28.48609 | -16.34611 | 2049 ft | 6 kts | 25° |
| 2026-04-23 17:12 | 28.48579 | -16.34626 | 2049 ft | 7 kts | 19° |
| 2026-04-23 17:12 | 28.48540 | -16.34633 | 2048 ft | 1 kts | 322° |
| 2026-04-23 17:12 | 28.48567 | -16.34711 | 2050 ft | 23 kts | 290° |
| 2026-04-23 17:12 | 28.48630 | -16.34905 | 2054 ft | 26 kts | 289° |
| 2026-04-23 17:13 | 28.48708 | -16.35152 | 2059 ft | 25 kts | 287° |
| 2026-04-23 17:13 | 28.48749 | -16.35275 | 2061 ft | 25 kts | 292° |
| 2026-04-23 17:13 | 28.48828 | -16.35498 | 2063 ft | 30 kts | 290° |
| 2026-04-23 17:13 | 28.48840 | -16.35703 | 2066 ft | 22 kts | 245° |
| 2026-04-23 17:14 | 28.48795 | -16.35729 | 2066 ft | 1 kts | 142° |
| 2026-04-23 17:14 | 28.48750 | -16.35604 | 2064 ft | 43 kts | 112° |
| 2026-04-23 17:14 | 28.48570 | -16.35075 | 2058 ft | 99 kts | 112° |
| 2026-04-23 17:14 | 28.48282 | -16.34186 | 2072 ft | 137 kts | 111° |
| 2026-04-23 17:15 | 28.47890 | -16.33202 | 2581 ft | 135 kts | 113° |
| 2026-04-23 17:15 | 28.47504 | -16.32176 | 2828 ft | 153 kts | 112° |
| 2026-04-23 17:15 | 28.47024 | -16.30972 | 2876 ft | 178 kts | 114° |
| 2026-04-23 17:15 | 28.46488 | -16.29680 | 3166 ft | 184 kts | 115° |
| 2026-04-23 17:16 | 28.45946 | -16.28359 | 3513 ft | 184 kts | 115° |
| 2026-04-23 17:16 | 28.45418 | -16.27027 | 3861 ft | 185 kts | 113° |
| 2026-04-23 17:16 | 28.44904 | -16.25686 | 4196 ft | 185 kts | 114° |
| 2026-04-23 17:16 | 28.44390 | -16.24330 | 4518 ft | 187 kts | 114° |
| 2026-04-23 17:17 | 28.43878 | -16.22972 | 4834 ft | 188 kts | 114° |
| 2026-04-23 17:17 | 28.43371 | -16.21617 | 5128 ft | 189 kts | 114° |
| 2026-04-23 17:17 | 28.42806 | -16.20245 | 5301 ft | 200 kts | 118° |
| 2026-04-23 17:17 | 28.42128 | -16.18786 | 5482 ft | 212 kts | 120° |
| 2026-04-23 17:18 | 28.40724 | -16.15823 | 6194 ft | 216 kts | 119° |
| 2026-04-23 17:18 | 28.40029 | -16.14301 | 6545 ft | 218 kts | 118° |
| 2026-04-23 17:18 | 28.39336 | -16.12768 | 6882 ft | 219 kts | 118° |
| 2026-04-23 17:19 | 28.38638 | -16.11215 | 7199 ft | 221 kts | 118° |
| 2026-04-23 17:19 | 28.37936 | -16.09653 | 7526 ft | 222 kts | 119° |
| 2026-04-23 17:19 | 28.37231 | -16.08084 | 7843 ft | 224 kts | 120° |
| 2026-04-23 17:19 | 28.36519 | -16.06504 | 8162 ft | 226 kts | 120° |
| 2026-04-23 17:20 | 28.35807 | -16.04927 | 8408 ft | 231 kts | 120° |
| 2026-04-23 17:20 | 28.34282 | -16.01551 | 8660 ft | 247 kts | 120° |
| 2026-04-23 17:21 | 28.32686 | -15.98008 | 8906 ft | 256 kts | 120° |
| 2026-04-23 17:21 | 28.31866 | -15.96192 | 9004 ft | 261 kts | 120° |
| 2026-04-23 17:21 | 28.30202 | -15.92507 | 9059 ft | 271 kts | 120° |
| 2026-04-23 17:22 | 28.29332 | -15.90590 | 9067 ft | 275 kts | 120° |
| 2026-04-23 17:22 | 28.27569 | -15.86671 | 9066 ft | 280 kts | 120° |
| 2026-04-23 17:23 | 28.25801 | -15.82709 | 9071 ft | 284 kts | 120° |
| 2026-04-23 17:23 | 28.24919 | -15.80706 | 9070 ft | 285 kts | 119° |
| 2026-04-23 17:23 | 28.23119 | -15.76692 | 9071 ft | 286 kts | 120° |
| 2026-04-23 17:24 | 28.22210 | -15.74687 | 9070 ft | 286 kts | 120° |
| 2026-04-23 17:24 | 28.21298 | -15.72676 | 9071 ft | 286 kts | 120° |
| 2026-04-23 17:25 | 28.17595 | -15.64524 | 9070 ft | 287 kts | 120° |
| 2026-04-23 17:25 | 28.16679 | -15.62511 | 9069 ft | 287 kts | 120° |
| 2026-04-23 17:26 | 28.14842 | -15.58475 | 8868 ft | 290 kts | 120° |
| 2026-04-23 17:26 | 28.12830 | -15.54674 | 8278 ft | 276 kts | 133° |
| 2026-04-23 17:27 | 28.10152 | -15.51598 | 7668 ft | 272 kts | 141° |
| 2026-04-23 17:27 | 28.08719 | -15.50176 | 7290 ft | 273 kts | 142° |
| 2026-04-23 17:27 | 28.07233 | -15.48821 | 6935 ft | 274 kts | 144° |
| 2026-04-23 17:27 | 28.05721 | -15.47550 | 6587 ft | 275 kts | 146° |
| 2026-04-23 17:28 | 28.04166 | -15.46283 | 6213 ft | 275 kts | 146° |
| 2026-04-23 17:28 | 28.02606 | -15.45031 | 5838 ft | 274 kts | 146° |
| 2026-04-23 17:28 | 28.01049 | -15.43793 | 5445 ft | 272 kts | 146° |
| 2026-04-23 17:28 | 27.99501 | -15.42570 | 5070 ft | 269 kts | 146° |
| 2026-04-23 17:29 | 27.97975 | -15.41364 | 4694 ft | 267 kts | 146° |
| 2026-04-23 17:29 | 27.96510 | -15.40222 | 4301 ft | 241 kts | 147° |
| 2026-04-23 17:29 | 27.93975 | -15.38275 | 3552 ft | 204 kts | 146° |
| 2026-04-23 17:30 | 27.93204 | -15.37696 | 3305 ft | 196 kts | 146° |
| 2026-04-23 17:30 | 27.90438 | -15.37609 | 2427 ft | 169 kts | 205° |
| 2026-04-23 17:30 | 27.89557 | -15.38427 | 2036 ft | 161 kts | 229° |
| 2026-04-23 17:31 | 27.89199 | -15.39516 | 1813 ft | 139 kts | 274° |
| 2026-04-23 17:31 | 27.89586 | -15.40351 | 1539 ft | 119 kts | 326° |
| 2026-04-23 17:31 | 27.90320 | -15.40080 | 750 ft | 132 kts | 40° |
| 2026-04-23 17:31 | 27.91060 | -15.39515 | 781 ft | 139 kts | 38° |
| 2026-04-23 17:32 | 27.91915 | -15.38929 | 1121 ft | 144 kts | 24° |
| 2026-04-23 17:32 | 27.92890 | -15.38449 | 1299 ft | 163 kts | 21° |
| 2026-04-23 17:32 | 27.93939 | -15.37985 | 1765 ft | 161 kts | 15° |